Recent forum postings ...
Today
Change wake turbulence after filing FP
Yesterday
KLM-VA site "not responding", is my flight toast?
3 days ago
Fly KLM Mon CTL
2021-04-09
SCHEDULE FLIGHT BOEING 737
2021-04-08
Law and rules in KLM VA
2021-04-04
Flying a Tour.


 
Aircraft IdentFlightrulesType of Flight
KLM877IG
NumberType of AircraftWake turbulenceEquipmentTransponder Type
1MD11HSDE1FGHIJ1RUWXYS
Departure AerodromeDeparture Time
EDDF1605
Cruising speedFlight level
N0350F300
Route
MARUN Y152 ARPEG Z850 HMM UL602 RKN



Destination AerodromeTotal EETAlternative Aerodrome
EHAM0001EHRD
Other information
RMK/KLMVA/DOF/210408

Explanation of the IVAO flightplan

Frankfurt/Main (EDDF), Germany

METAR
EDDF 081520Z 21009G19KT 160V250 CAVOK 09/M05 Q1023 NOSIG

WINDSSW at 10 mph, gusting to 22 mph
VISIBILITYgreater than 7 miles
CONDITIONS
CLOUDSclear skies
TEMP48°F (9°C)
WIND CHILL44°F (7°C)
DEWPT23°F (-5°C)
HUMIDITY37%
BAROMETER1023 hPa (30.21 in Hg)

RUNWAYS

RunwayDesignatorSurfaceHeadingLengthWidthAltitudeILSILS-Freq.Glidescope Pitch
07LEFTCONCRETE69.623992.58 ft60.05 ft110.95 ftCAT III ILS 07L110.13
07RIGHTCONCRETE69.623993.49 ft45.11 ft110.95 ftCAT III ILS 07R110.953

Schiphol (EHAM), Netherlands

METAR
EHAM 081625Z 22015KT 9999 BKN042 08/M01 Q1019 NOSIG

WINDSW at 17 mph
VISIBILITY16 miles
CONDITIONS
CLOUDSmostly cloudy
TEMP46°F (8°C)
WIND CHILL39°F (4°C)
DEWPT30°F (-1°C)
HUMIDITY53%
BAROMETER1019 hPa (30.09 in Hg)

RUNWAYS

RunwayDesignatorSurfaceHeadingLengthWidthAltitudeILSILS-Freq.Glidescope Pitch
18CENTERASPHALT183.223295.5 ft45.11 ft-3.35 ftCAT III ILS/DME 36C108.753
18LEFTASPHALT183.253393.64 ft45.11 ft-3.35 ftCAT III ILS/DME 36R111.953
Registration TimeGroundspeedAltitudeTransponderHeadingLongitudeLatitudeOn ground
15:57 08-04-20210 kts377 ft10003408.5874850.0507Yes
16:000 kts377 ft10003408.5874850.0507Yes
16:030 kts377 ft10002508.5888150.05Yes
16:0615 kts377 ft10002148.5871650.0459Yes
16:09222 kts4533 ft10002088.4904149.9922No
16:12376 kts13738 ft10003388.2999450.0145No
16:15440 kts23828 ft1000158.4334350.3413No
16:18439 kts30232 ft1000108.6114450.6943No
16:21405 kts30248 ft10003128.3996750.9675No
16:24406 kts30251 ft10003288.1029651.2458No
16:27411 kts30259 ft10003407.8599551.5451No
16:30378 kts29638 ft10003167.5850751.8272No
16:33357 kts26240 ft10003147.2556252.0385No
16:36355 kts24821 ft10002976.9014852.2386No
16:39322 kts19720 ft10002966.4802752.3601No
16:42267 kts15624 ft10002956.1070852.4667No
16:45239 kts11282 ft10002755.7655152.5024No
16:48278 kts5366 ft10002735.4116152.518No
16:51206 kts2027 ft10002255.1194452.4154No
16:54162 kts1762 ft10002704.9594352.3234No
16:5723 kts18 ft10002484.7700352.3173Yes
17:0012 kts18 ft10001624.7668252.3152Yes
17:030 kts18 ft10003024.7697652.3135Yes
17:060 kts18 ft10003024.7697652.3135Yes
17:090 kts18 ft10003024.7697652.3135Yes
17:120 kts18 ft10003024.7697652.3135Yes